createdAt,value
2018-01-17T00:02:56.782Z,98.67
2018-01-17T00:05:25.853Z,98.69
2018-01-17T00:07:54.919Z,98.90
2018-01-17T00:10:24.162Z,99.07
2018-01-17T00:12:53.230Z,99.31
2018-01-17T00:15:22.265Z,99.42
2018-01-17T00:17:51.289Z,99.56
2018-01-17T00:20:20.361Z,99.77
2018-01-17T00:22:49.437Z,99.62
2018-01-17T00:25:18.484Z,99.72
2018-01-17T00:30:22.759Z,99.24
2018-01-17T00:32:51.773Z,99.44
2018-01-17T00:35:20.805Z,99.68
2018-01-17T00:37:49.913Z,99.74
2018-01-17T00:40:18.934Z,99.67
2018-01-17T00:42:47.983Z,99.52
2018-01-17T00:45:17.764Z,99.31
2018-01-17T00:47:46.825Z,99.22
2018-01-17T00:50:15.864Z,99.17
2018-01-17T00:52:44.911Z,98.98
2018-01-17T00:55:15.136Z,98.73
2018-01-17T00:57:44.144Z,98.97
2018-01-17T01:00:13.173Z,99.18
2018-01-17T01:02:42.212Z,99.56
2018-01-17T01:07:46.513Z,99.81
2018-01-17T01:10:15.557Z,100.00
2018-01-17T01:12:44.586Z,100.00
2018-01-17T01:15:13.624Z,99.97
2018-01-17T01:17:42.652Z,99.93
2018-01-17T01:20:11.700Z,99.82
2018-01-17T01:22:40.732Z,99.94
2018-01-17T01:25:09.765Z,99.50
2018-01-17T01:27:38.804Z,99.41
2018-01-17T01:30:07.866Z,99.67
2018-01-17T01:32:36.869Z,99.71
2018-01-17T01:35:06.862Z,99.75
2018-01-17T01:37:35.910Z,100.00
2018-01-17T01:40:04.944Z,100.00
2018-01-17T01:42:33.972Z,99.75
2018-01-17T01:45:03.008Z,99.39
2018-01-17T01:47:32.053Z,99.49
2018-01-17T01:50:01.088Z,99.58
2018-01-17T01:52:30.126Z,99.61
2018-01-17T01:55:00.202Z,99.65
2018-01-17T01:57:29.304Z,99.68
2018-01-17T01:59:58.329Z,99.64
2018-01-17T02:02:27.373Z,99.48
2018-01-17T02:04:56.413Z,99.92
2018-01-17T02:07:25.486Z,99.50
2018-01-17T02:09:54.518Z,99.48
2018-01-17T02:12:23.549Z,99.59
2018-01-17T02:14:52.594Z,98.61
2018-01-17T02:17:21.637Z,98.21
2018-01-17T02:19:57.411Z,98.22
2018-01-17T02:22:28.356Z,98.09
2018-01-17T02:24:57.385Z,97.94
2018-01-17T02:27:26.408Z,98.24
2018-01-17T02:29:55.444Z,98.52
2018-01-17T02:34:59.709Z,97.04
2018-01-17T02:37:28.744Z,96.91
2018-01-17T02:42:37.437Z,96.86
2018-01-17T02:45:06.490Z,96.08
2018-01-17T02:47:35.516Z,96.20
2018-01-17T02:50:04.541Z,96.07
2018-01-17T02:52:33.573Z,96.34
2018-01-17T02:55:02.606Z,96.12
2018-01-17T02:57:31.642Z,95.75
2018-01-17T03:00:00.715Z,95.61
2018-01-17T03:02:36.932Z,95.29
2018-01-17T03:05:05.941Z,93.75
2018-01-17T03:07:35.001Z,93.37
2018-01-17T03:10:04.029Z,92.48
2018-01-17T03:12:33.059Z,91.04
2018-01-17T03:15:02.137Z,91.64
2018-01-17T03:17:31.140Z,90.96
2018-01-17T03:20:00.334Z,89.79
2018-01-17T03:22:29.358Z,89.39
2018-01-17T03:24:58.389Z,88.92
2018-01-17T03:27:27.407Z,87.78
2018-01-17T03:29:56.439Z,87.35
2018-01-17T03:32:25.469Z,87.69
2018-01-17T03:34:54.494Z,87.86
2018-01-17T03:37:23.545Z,87.61
2018-01-17T03:39:52.588Z,87.14
2018-01-17T03:42:21.632Z,86.61
2018-01-17T03:44:50.656Z,86.54
2018-01-17T03:47:19.687Z,87.00
2018-01-17T03:49:48.714Z,87.32
2018-01-17T03:52:17.745Z,87.45
2018-01-17T03:54:46.792Z,87.40
2018-01-17T03:57:15.820Z,88.04
2018-01-17T03:59:44.855Z,87.77
2018-01-17T04:02:13.903Z,88.19
2018-01-17T04:04:42.917Z,87.91
2018-01-17T04:07:11.964Z,88.17
2018-01-17T04:09:42.369Z,88.31
2018-01-17T04:12:11.401Z,88.86
2018-01-17T04:14:40.432Z,88.87
2018-01-17T04:17:09.457Z,88.56
2018-01-17T04:19:38.756Z,89.03
2018-01-17T04:24:43.012Z,88.15
2018-01-17T04:27:12.095Z,88.41
2018-01-17T04:29:41.078Z,88.54
2018-01-17T04:32:10.109Z,88.85
2018-01-17T04:34:39.150Z,88.50
2018-01-17T04:37:08.189Z,88.54
2018-01-17T04:39:37.489Z,88.94
2018-01-17T04:42:06.504Z,88.37
2018-01-17T04:44:35.522Z,88.42
2018-01-17T04:47:04.582Z,89.17
2018-01-17T04:49:38.853Z,88.03
2018-01-17T04:52:07.936Z,88.48
2018-01-17T04:54:36.972Z,88.60
2018-01-17T04:57:06.005Z,87.28
2018-01-17T04:59:35.049Z,87.38
2018-01-17T05:02:04.076Z,87.04
2018-01-17T05:04:33.125Z,86.33
2018-01-17T05:07:02.154Z,86.84
2018-01-17T05:09:32.221Z,86.68
2018-01-17T05:12:01.248Z,86.59
2018-01-17T05:14:30.313Z,86.21
2018-01-17T05:16:59.341Z,85.72
2018-01-17T05:19:28.385Z,85.59
2018-01-17T05:21:57.434Z,86.35
2018-01-17T05:24:26.470Z,85.94
2018-01-17T05:26:55.513Z,86.55
2018-01-17T05:29:24.536Z,85.72
2018-01-17T05:31:53.605Z,85.12
2018-01-17T05:34:22.637Z,85.65
2018-01-17T05:36:51.682Z,85.71
2018-01-17T05:39:20.716Z,85.72
2018-01-17T05:41:49.813Z,85.48
2018-01-17T05:44:18.856Z,85.58
2018-01-17T05:46:47.882Z,85.20
2018-01-17T05:49:16.919Z,85.45
2018-01-17T05:51:46.684Z,84.83
2018-01-17T05:54:15.711Z,84.98
2018-01-17T05:56:44.737Z,84.98
2018-01-17T05:59:13.765Z,84.95
2018-01-17T06:01:42.797Z,85.24
2018-01-17T06:06:47.076Z,85.41
2018-01-17T06:09:16.114Z,84.92
2018-01-17T06:11:45.148Z,85.03
2018-01-17T06:14:14.196Z,85.94
2018-01-17T06:16:43.233Z,85.47
2018-01-17T06:19:12.270Z,86.28
2018-01-17T06:21:41.328Z,87.92
2018-01-17T06:24:10.376Z,90.27
2018-01-17T06:26:39.401Z,90.90
2018-01-17T06:29:08.441Z,90.69
2018-01-17T06:31:37.518Z,91.31
2018-01-17T06:34:06.708Z,91.11
2018-01-17T06:36:35.741Z,91.09
2018-01-17T06:41:39.994Z,89.06
2018-01-17T06:44:09.058Z,88.15
2018-01-17T06:46:38.069Z,86.28
2018-01-17T06:49:07.269Z,86.44
2018-01-17T06:51:36.316Z,86.07
2018-01-17T06:54:05.347Z,87.77
2018-01-17T06:56:34.368Z,89.84
2018-01-17T06:59:03.412Z,92.07
2018-01-17T07:01:32.457Z,94.32
2018-01-17T07:04:01.506Z,95.13
2018-01-17T07:06:30.541Z,94.25
2018-01-17T07:09:00.487Z,94.32
2018-01-17T07:11:29.536Z,94.89
2018-01-17T07:13:58.624Z,95.93
2018-01-17T07:16:27.689Z,95.91
2018-01-17T07:18:56.730Z,95.82
2018-01-17T07:21:25.764Z,95.69
2018-01-17T07:23:54.821Z,95.16
2018-01-17T07:26:23.863Z,95.29
2018-01-17T07:28:52.902Z,94.80
2018-01-17T07:31:21.934Z,94.80
2018-01-17T07:33:50.965Z,94.80
2018-01-17T07:36:20.013Z,95.29
2018-01-17T07:38:49.269Z,95.47
2018-01-17T07:41:18.361Z,95.00
2018-01-17T07:43:47.401Z,94.40
2018-01-17T07:46:16.433Z,94.08
2018-01-17T07:48:45.459Z,93.92
2018-01-17T07:51:14.541Z,94.22
2018-01-17T07:53:43.754Z,94.59
2018-01-17T07:56:12.805Z,95.26
2018-01-17T07:58:41.847Z,95.30
2018-01-17T08:01:10.877Z,93.65
2018-01-17T08:03:39.953Z,94.05
2018-01-17T08:06:08.978Z,94.13
2018-01-17T08:08:38.036Z,93.87
2018-01-17T08:11:07.144Z,94.66
2018-01-17T08:13:36.181Z,94.41
2018-01-17T08:16:05.248Z,94.18
2018-01-17T08:18:34.281Z,94.22
2018-01-17T08:21:03.340Z,93.91
2018-01-17T08:23:36.649Z,93.53
2018-01-17T08:26:05.731Z,94.04
2018-01-17T08:28:34.852Z,93.78
2018-01-17T08:31:03.951Z,92.70
2018-01-17T08:33:32.994Z,93.79
2018-01-17T08:36:02.036Z,93.43
2018-01-17T08:38:31.060Z,92.29
2018-01-17T08:41:00.116Z,92.58
2018-01-17T08:43:29.148Z,91.49
2018-01-17T08:45:58.185Z,92.30
2018-01-17T08:48:27.216Z,92.18
2018-01-17T08:50:56.318Z,92.07
2018-01-17T08:53:25.323Z,91.84
2018-01-17T08:55:54.373Z,92.35
2018-01-17T08:58:23.414Z,91.91
2018-01-17T09:00:55.004Z,91.51
2018-01-17T09:03:24.033Z,91.35
2018-01-17T09:05:53.093Z,90.04
2018-01-17T09:08:22.150Z,89.96
2018-01-17T09:10:51.183Z,88.05
2018-01-17T09:13:20.268Z,87.45
2018-01-17T09:15:49.306Z,88.13
2018-01-17T09:18:18.345Z,87.20
2018-01-17T09:20:47.382Z,86.17
2018-01-17T09:23:16.433Z,84.79
2018-01-17T09:25:45.468Z,84.66
2018-01-17T09:28:14.493Z,82.30
2018-01-17T09:30:43.560Z,79.04
2018-01-17T09:33:12.601Z,76.98
2018-01-17T09:35:41.651Z,79.25
2018-01-17T09:38:10.700Z,78.92
2018-01-17T09:40:39.784Z,80.33
2018-01-17T09:43:08.798Z,81.32
2018-01-17T09:48:12.858Z,80.49
2018-01-17T09:50:41.888Z,82.04
2018-01-17T09:53:10.938Z,79.20
2018-01-17T09:58:15.496Z,78.05
2018-01-17T10:00:44.539Z,79.29
2018-01-17T10:03:13.587Z,79.05
2018-01-17T10:05:42.626Z,79.02
2018-01-17T10:08:11.667Z,76.76
2018-01-17T10:13:15.882Z,76.80
2018-01-17T10:15:44.916Z,75.36
2018-01-17T10:18:13.951Z,73.51
2018-01-17T10:23:18.209Z,65.65
2018-01-17T10:25:47.269Z,66.25
2018-01-17T10:28:16.313Z,64.14
2018-01-17T10:30:45.365Z,64.14
2018-01-17T10:33:14.389Z,62.06
2018-01-17T10:35:43.427Z,64.66
2018-01-17T10:38:12.462Z,62.47
2018-01-17T10:43:17.748Z,63.71
2018-01-17T10:45:46.807Z,60.63
2018-01-17T10:48:15.834Z,64.35
2018-01-17T10:50:44.865Z,67.21
2018-01-17T10:53:13.910Z,67.15
2018-01-17T10:55:42.942Z,65.05
2018-01-17T10:58:12.006Z,65.37
2018-01-17T11:00:46.942Z,66.63
2018-01-17T11:03:15.980Z,65.95
2018-01-17T11:05:45.012Z,64.94
2018-01-17T11:08:14.066Z,63.04
2018-01-17T11:10:43.119Z,64.52
2018-01-17T11:13:12.151Z,62.61
2018-01-17T11:15:41.189Z,64.21
2018-01-17T11:18:10.219Z,68.14
2018-01-17T11:20:39.337Z,68.36
2018-01-17T11:23:08.375Z,67.77
2018-01-17T11:25:37.461Z,67.03
2018-01-17T11:28:06.496Z,68.90
2018-01-17T11:30:35.557Z,69.03
2018-01-17T11:33:04.603Z,70.26
2018-01-17T11:35:33.646Z,72.16
2018-01-17T11:38:02.690Z,76.45
2018-01-17T11:40:31.745Z,77.95
2018-01-17T11:43:00.774Z,79.77
2018-01-17T11:45:29.821Z,82.05
2018-01-17T11:47:58.849Z,85.77
2018-01-17T11:50:27.888Z,92.98
2018-01-17T11:52:56.937Z,95.74
2018-01-17T11:55:25.993Z,96.88
2018-01-17T11:57:55.230Z,98.65
2018-01-17T12:00:24.273Z,99.26
2018-01-17T12:02:54.033Z,99.97
2018-01-17T12:05:23.074Z,100.00
2018-01-17T12:07:52.974Z,100.00
2018-01-17T12:10:22.022Z,100.00
2018-01-17T12:12:51.590Z,98.63
2018-01-17T12:15:20.589Z,97.00
2018-01-17T12:17:49.640Z,94.73
2018-01-17T12:20:18.680Z,93.09
2018-01-17T12:22:47.726Z,90.80
2018-01-17T12:25:16.767Z,88.92
2018-01-17T12:27:45.801Z,86.99
2018-01-17T12:32:50.038Z,82.21
2018-01-17T12:35:19.077Z,82.59
2018-01-17T12:37:48.121Z,82.55
2018-01-17T12:40:17.165Z,80.86
2018-01-17T12:42:46.215Z,80.43
2018-01-17T12:47:50.981Z,78.46
2018-01-17T12:50:20.065Z,78.01
2018-01-17T12:52:49.101Z,75.85
2018-01-17T12:55:18.133Z,75.83
2018-01-17T12:57:47.192Z,74.01
2018-01-17T13:00:16.249Z,73.00
2018-01-17T13:02:45.293Z,72.27
2018-01-17T13:05:14.330Z,69.68
2018-01-17T13:07:43.360Z,70.64
2018-01-17T13:10:12.406Z,75.05
2018-01-17T13:12:41.433Z,77.44
2018-01-17T13:15:10.467Z,79.13
2018-01-17T13:17:39.496Z,81.12
2018-01-17T13:20:08.552Z,83.90
2018-01-17T13:22:37.581Z,85.57
2018-01-17T13:25:06.609Z,89.78
2018-01-17T13:27:35.662Z,92.70
2018-01-17T13:30:04.708Z,94.55
2018-01-17T13:32:33.756Z,94.38
2018-01-17T13:35:02.788Z,94.22
2018-01-17T13:37:31.864Z,94.14
2018-01-17T13:42:36.717Z,88.08
2018-01-17T13:45:05.763Z,77.62
2018-01-17T13:47:34.817Z,72.20
2018-01-17T13:50:03.838Z,70.80
2018-01-17T13:55:12.458Z,73.64
2018-01-17T13:57:41.490Z,74.84
2018-01-17T14:00:11.429Z,74.78
2018-01-17T14:02:40.469Z,72.70
2018-01-17T14:05:09.506Z,71.00
2018-01-17T14:07:38.528Z,69.87
2018-01-17T14:10:07.570Z,70.18
2018-01-17T14:12:36.605Z,71.98
2018-01-17T14:15:05.633Z,73.60
2018-01-17T14:17:34.936Z,77.16
2018-01-17T14:20:03.977Z,76.99
2018-01-17T14:22:33.012Z,76.10
2018-01-17T14:26:56.457Z,78.77
2018-01-17T14:29:25.517Z,77.60
2018-01-17T14:31:54.546Z,77.75
2018-01-17T14:34:24.631Z,79.00
2018-01-17T14:36:53.666Z,79.63
2018-01-17T14:42:00.873Z,79.99
2018-01-17T14:44:29.909Z,80.51
2018-01-17T14:46:58.937Z,80.55
2018-01-17T14:49:27.979Z,80.11
2018-01-17T14:51:57.010Z,80.07
2018-01-17T14:54:26.235Z,80.88
2018-01-17T14:56:55.677Z,80.34
2018-01-17T14:59:24.993Z,80.66
2018-01-17T15:01:54.042Z,79.04
2018-01-17T15:04:23.965Z,79.20
2018-01-17T15:06:53.003Z,78.44
2018-01-17T15:09:23.241Z,79.11
2018-01-17T15:11:52.284Z,77.67
2018-01-17T15:14:23.361Z,78.51
2018-01-17T15:16:52.392Z,77.75
2018-01-17T15:19:22.196Z,77.30
2018-01-17T15:24:26.405Z,77.70
2018-01-17T15:26:55.495Z,77.75
2018-01-17T15:29:25.196Z,77.79
2018-01-17T15:31:54.247Z,78.58
2018-01-17T15:34:24.273Z,78.35
2018-01-17T15:36:53.321Z,78.72
2018-01-17T15:39:22.785Z,79.20
2018-01-17T15:41:51.824Z,79.69
2018-01-17T15:44:21.067Z,79.53
2018-01-17T15:46:50.072Z,79.76
2018-01-17T15:49:21.474Z,79.58
2018-01-17T15:51:50.489Z,80.23
2018-01-17T15:54:19.518Z,80.13
2018-01-17T15:56:48.557Z,79.59
2018-01-17T15:59:17.612Z,79.74
2018-01-17T16:01:46.641Z,80.55
2018-01-17T16:04:15.677Z,80.24
2018-01-17T16:06:45.604Z,79.36
2018-01-17T16:09:14.858Z,79.86
2018-01-17T16:11:43.857Z,80.27
2018-01-17T16:14:12.889Z,80.02
2018-01-17T16:16:41.910Z,81.42
2018-01-17T16:19:10.945Z,83.07
2018-01-17T16:21:39.983Z,83.81
2018-01-17T16:24:09.018Z,83.88
2018-01-17T16:26:38.053Z,83.52
2018-01-17T16:29:07.085Z,82.82
2018-01-17T16:31:36.120Z,82.52
2018-01-17T16:34:05.149Z,81.83
2018-01-17T16:36:34.186Z,82.73
2018-01-17T16:39:03.217Z,83.37
2018-01-17T16:41:32.269Z,83.86
2018-01-17T16:44:01.301Z,85.05
2018-01-17T16:46:30.355Z,86.09
2018-01-17T16:48:59.376Z,86.50
2018-01-17T16:51:28.407Z,85.33
2018-01-17T16:53:57.443Z,86.29
2018-01-17T16:56:26.493Z,85.72
2018-01-17T16:58:55.529Z,85.72
2018-01-17T17:01:24.570Z,85.26
2018-01-17T17:03:53.600Z,85.31
2018-01-17T17:06:22.631Z,84.92
2018-01-17T17:08:51.669Z,84.01
2018-01-17T17:11:20.701Z,83.71
2018-01-17T17:16:26.510Z,83.35
2018-01-17T17:18:55.574Z,83.11
2018-01-17T17:21:24.576Z,83.49
2018-01-17T17:23:58.429Z,84.31
2018-01-17T17:26:27.572Z,84.53
2018-01-17T17:28:56.616Z,84.44
2018-01-17T17:31:25.654Z,84.53
2018-01-17T17:33:54.689Z,84.64
2018-01-17T17:36:23.736Z,85.10
2018-01-17T17:38:52.796Z,84.07
2018-01-17T17:41:21.834Z,83.18
2018-01-17T17:43:50.909Z,81.98
2018-01-17T17:46:19.932Z,81.39
2018-01-17T17:48:49.076Z,79.69
2018-01-17T17:51:18.117Z,79.37
2018-01-17T17:53:47.150Z,78.70
2018-01-17T17:56:16.174Z,78.55
2018-01-17T17:58:45.216Z,79.12
2018-01-17T18:01:14.253Z,78.93
2018-01-17T18:03:43.343Z,79.43
2018-01-17T18:06:13.328Z,79.66
2018-01-17T18:08:42.368Z,79.93
2018-01-17T18:11:11.414Z,80.37
2018-01-17T18:13:40.445Z,83.88
2018-01-17T18:16:09.739Z,87.42
2018-01-17T18:18:38.763Z,88.03
2018-01-17T18:21:08.837Z,87.36
2018-01-17T18:23:37.876Z,86.04
2018-01-17T18:26:07.933Z,84.16
2018-01-17T18:28:36.980Z,83.06
2018-01-17T18:31:07.185Z,82.30
2018-01-17T18:36:11.546Z,83.90
2018-01-17T18:38:40.581Z,84.12
2018-01-17T18:41:09.622Z,83.97
2018-01-17T18:43:38.641Z,83.81
2018-01-17T18:46:08.803Z,82.68
2018-01-17T18:48:39.504Z,83.04
2018-01-17T18:53:45.701Z,81.76
2018-01-17T18:56:14.732Z,83.66
2018-01-17T18:58:43.777Z,86.47
2018-01-17T19:01:12.808Z,86.87
2018-01-17T19:03:41.844Z,87.36
2018-01-17T19:06:10.879Z,86.54
2018-01-17T19:08:39.929Z,84.83
2018-01-17T19:11:09.317Z,83.80
2018-01-17T19:16:14.638Z,84.56
2018-01-17T19:18:43.687Z,84.03
2018-01-17T19:21:12.727Z,84.62
2018-01-17T19:23:41.765Z,84.51
2018-01-17T19:26:11.208Z,85.12
2018-01-17T19:28:40.236Z,84.81
2018-01-17T19:31:10.341Z,85.27
2018-01-17T19:33:39.401Z,85.21
2018-01-17T19:36:09.524Z,86.21
2018-01-17T19:38:39.553Z,86.65
2018-01-17T19:41:12.812Z,85.74
2018-01-17T19:43:41.870Z,86.83
2018-01-17T19:46:10.880Z,88.36
2018-01-17T19:48:39.918Z,89.46
2018-01-17T19:51:09.345Z,92.56
2018-01-17T19:53:38.389Z,94.24
2018-01-17T19:56:08.443Z,95.50
2018-01-17T19:58:37.476Z,95.10
2018-01-17T20:01:07.559Z,94.73
2018-01-17T20:03:36.618Z,94.63
2018-01-17T20:06:06.927Z,94.87
2018-01-17T20:08:36.022Z,92.98
2018-01-17T20:11:05.267Z,92.48
2018-01-17T20:13:34.281Z,91.45
2018-01-17T20:16:03.326Z,89.78
2018-01-17T20:18:32.364Z,90.96
2018-01-17T20:21:01.576Z,90.20
2018-01-17T20:23:30.622Z,90.01
2018-01-17T20:25:59.653Z,90.26
2018-01-17T20:28:28.778Z,89.84
2018-01-17T20:30:57.817Z,89.82
2018-01-17T20:33:26.849Z,89.95
2018-01-17T20:35:56.031Z,90.09
2018-01-17T20:38:25.061Z,89.07
2018-01-17T20:40:54.169Z,88.42
2018-01-17T20:43:23.202Z,87.59
2018-01-17T20:45:52.257Z,87.12
2018-01-17T20:48:21.304Z,86.96
2018-01-17T20:50:50.341Z,86.51
2018-01-17T20:53:19.392Z,86.52
2018-01-17T20:55:48.415Z,86.42
2018-01-17T20:58:17.566Z,86.64
2018-01-17T21:00:46.610Z,85.76
2018-01-17T21:03:16.663Z,85.89
2018-01-17T21:05:45.705Z,85.90
2018-01-17T21:08:14.777Z,86.19
2018-01-17T21:10:43.916Z,86.57
2018-01-17T21:13:12.950Z,86.72
2018-01-17T21:18:02.354Z,86.64
2018-01-17T21:20:54.537Z,86.96
2018-01-17T21:23:23.674Z,87.27
2018-01-17T21:25:52.702Z,87.85
2018-01-17T21:28:21.734Z,88.54
2018-01-17T21:30:51.559Z,89.17
2018-01-17T21:33:20.671Z,89.04
2018-01-17T21:35:55.217Z,89.35
2018-01-17T21:38:24.250Z,89.53
2018-01-17T21:40:53.373Z,89.51
2018-01-17T21:43:29.390Z,89.26
2018-01-17T21:45:58.511Z,89.95
2018-01-17T21:48:27.634Z,90.38
2018-01-17T21:50:56.669Z,90.82
2018-01-17T21:53:25.729Z,91.25
2018-01-17T21:55:58.994Z,91.55
2018-01-17T21:58:28.066Z,92.13
2018-01-17T22:00:57.366Z,92.78
2018-01-17T22:03:27.281Z,93.34
2018-01-17T22:05:56.338Z,93.11
2018-01-17T22:08:25.378Z,92.55
2018-01-17T22:10:54.396Z,91.75
2018-01-17T22:13:23.433Z,91.29
2018-01-17T22:15:53.456Z,90.50
2018-01-17T22:18:27.878Z,90.46
2018-01-17T22:20:56.895Z,90.05
2018-01-17T22:23:25.925Z,90.15
2018-01-17T22:25:55.013Z,90.17
2018-01-17T22:28:24.037Z,90.42
2018-01-17T22:30:53.093Z,90.63
2018-01-17T22:33:22.113Z,90.19
2018-01-17T22:35:51.147Z,89.54
2018-01-17T22:38:20.209Z,89.82
2018-01-17T22:40:49.258Z,89.61
2018-01-17T22:43:18.298Z,89.31
2018-01-17T22:45:47.333Z,88.76
2018-01-17T22:48:16.364Z,88.48
2018-01-17T22:50:45.403Z,88.32
2018-01-17T22:53:16.042Z,88.02
2018-01-17T22:55:45.118Z,88.27
2018-01-17T22:58:14.141Z,87.32
2018-01-17T23:00:43.192Z,87.39
2018-01-17T23:03:12.232Z,87.72
2018-01-17T23:05:41.277Z,87.61
2018-01-17T23:08:10.338Z,87.58
2018-01-17T23:10:39.372Z,87.14
2018-01-17T23:13:08.401Z,86.06
2018-01-17T23:15:37.441Z,86.34
2018-01-17T23:18:06.523Z,86.25
2018-01-17T23:20:39.648Z,85.97
2018-01-17T23:23:08.663Z,85.70
2018-01-17T23:25:37.693Z,85.27
2018-01-17T23:28:06.713Z,85.18
2018-01-17T23:30:35.746Z,85.51
2018-01-17T23:33:04.803Z,84.95
2018-01-17T23:35:33.837Z,84.81
2018-01-17T23:38:02.875Z,84.59
2018-01-17T23:40:31.898Z,85.12
2018-01-17T23:45:36.153Z,84.75
2018-01-17T23:48:05.189Z,85.08
2018-01-17T23:50:34.213Z,85.32
2018-01-17T23:53:03.253Z,85.59
2018-01-17T23:55:32.272Z,85.66
2018-01-17T23:58:01.333Z,87.08
